Spring Valley, Minnesota
Current Conditions -  °F | °C
As of 8:56 PM on Tuesday 21 Oct 2014 (Local Time) from KFKA Reporting Station
Clear Clear  
Wind Chill: 41°   Ceiling: Unl
Heat Index: 45°   Visibility: 10mi
Dew Point: 36°   Wind: 7mph
Humidity: 71%   Direction: 140°SE
Pressure: 30.21"   Gusts: NA
Location:  43.69°N, 92.39°W
Report Text: KFKA 220156Z AUTO 14006KT 10SM CLR 07/02 A3021 RMK AO2 T00700021
Loading
Personal Weather Stations






























Interactive Weather Map
Tropical Storm Tracking
New forecast layout! Learn more

10-Day Weather Forecast

Advertisements
Track Severe Weather on mobile